sensor_id;sensor_type;location;lat;lon;timestamp;pressure;altitude;pressure_sealevel;temperature;humidity
65376;BME280;51976;47.332;9.404;2023-06-22T00:00:50;92681.91;;;20.56;58.20
65376;BME280;51976;47.332;9.404;2023-06-22T00:03:20;92691.44;;;20.46;58.97
65376;BME280;51976;47.332;9.404;2023-06-22T00:05:46;92697.84;;;20.66;58.51
65376;BME280;51976;47.332;9.404;2023-06-22T00:08:12;92691.25;;;20.55;57.90
65376;BME280;51976;47.332;9.404;2023-06-22T00:10:37;92692.81;;;20.68;57.55
65376;BME280;51976;47.332;9.404;2023-06-22T00:13:03;92690.41;;;20.79;56.97
65376;BME280;51976;47.332;9.404;2023-06-22T00:15:29;92679.88;;;20.81;56.73
65376;BME280;51976;47.332;9.404;2023-06-22T00:17:54;92694.28;;;20.78;56.28
65376;BME280;51976;47.332;9.404;2023-06-22T00:20:22;92687.25;;;20.65;56.67
65376;BME280;51976;47.332;9.404;2023-06-22T00:22:47;92686.00;;;20.62;57.14
65376;BME280;51976;47.332;9.404;2023-06-22T00:25:13;92687.38;;;20.56;57.07
65376;BME280;51976;47.332;9.404;2023-06-22T00:27:38;92686.41;;;20.36;57.60
65376;BME280;51976;47.332;9.404;2023-06-22T00:30:04;92689.94;;;20.37;57.53
65376;BME280;51976;47.332;9.404;2023-06-22T00:32:30;92704.44;;;20.49;57.05
65376;BME280;51976;47.332;9.404;2023-06-22T00:34:55;92685.25;;;20.49;57.10
65376;BME280;51976;47.332;9.404;2023-06-22T00:37:21;92679.72;;;20.09;58.35
65376;BME280;51976;47.332;9.404;2023-06-22T00:39:51;92696.38;;;20.16;58.36
65376;BME280;51976;47.332;9.404;2023-06-22T00:42:16;92691.13;;;19.99;59.25
65376;BME280;51976;47.332;9.404;2023-06-22T00:44:42;92682.03;;;19.95;59.36
65376;BME280;51976;47.332;9.404;2023-06-22T00:47:07;92697.41;;;20.12;59.39
65376;BME280;51976;47.332;9.404;2023-06-22T00:49:32;92700.47;;;20.22;58.72
65376;BME280;51976;47.332;9.404;2023-06-22T00:51:58;92702.38;;;20.34;58.34
65376;BME280;51976;47.332;9.404;2023-06-22T00:54:24;92703.16;;;20.35;58.50
65376;BME280;51976;47.332;9.404;2023-06-22T00:56:53;92701.50;;;20.06;58.99
65376;BME280;51976;47.332;9.404;2023-06-22T00:59:23;92706.97;;;20.06;58.94
65376;BME280;51976;47.332;9.404;2023-06-22T01:01:49;92700.25;;;20.15;58.76
65376;BME280;51976;47.332;9.404;2023-06-22T01:04:15;92702.41;;;20.10;58.95
65376;BME280;51976;47.332;9.404;2023-06-22T01:06:47;92704.47;;;20.01;59.42
65376;BME280;51976;47.332;9.404;2023-06-22T01:09:29;92706.97;;;20.06;59.64
65376;BME280;51976;47.332;9.404;2023-06-22T01:12:00;92709.59;;;20.14;59.75
65376;BME280;51976;47.332;9.404;2023-06-22T01:14:40;92704.69;;;20.20;59.41
65376;BME280;51976;47.332;9.404;2023-06-22T01:17:08;92707.38;;;20.32;59.28
65376;BME280;51976;47.332;9.404;2023-06-22T01:19:49;92713.31;;;20.34;59.22
65376;BME280;51976;47.332;9.404;2023-06-22T01:22:22;92698.53;;;20.11;59.67
65376;BME280;51976;47.332;9.404;2023-06-22T01:25:07;92714.28;;;19.77;60.52
65376;BME280;51976;47.332;9.404;2023-06-22T01:27:53;92713.16;;;19.90;60.61
65376;BME280;51976;47.332;9.404;2023-06-22T01:30:23;92709.06;;;19.84;61.16
65376;BME280;51976;47.332;9.404;2023-06-22T01:32:53;92720.44;;;19.86;61.09
65376;BME280;51976;47.332;9.404;2023-06-22T01:35:20;92710.44;;;19.90;61.21
65376;BME280;51976;47.332;9.404;2023-06-22T01:37:46;92709.97;;;19.76;61.11
65376;BME280;51976;47.332;9.404;2023-06-22T01:40:12;92715.53;;;19.80;60.62
65376;BME280;51976;47.332;9.404;2023-06-22T01:42:38;92729.66;;;19.57;61.48
65376;BME280;51976;47.332;9.404;2023-06-22T01:45:05;92719.75;;;19.53;61.54
65376;BME280;51976;47.332;9.404;2023-06-22T01:47:31;92722.78;;;19.39;62.21
65376;BME280;51976;47.332;9.404;2023-06-22T01:49:57;92726.88;;;19.45;62.41
65376;BME280;51976;47.332;9.404;2023-06-22T01:52:23;92733.09;;;19.54;62.57
65376;BME280;51976;47.332;9.404;2023-06-22T01:54:48;92732.66;;;19.65;61.60
65376;BME280;51976;47.332;9.404;2023-06-22T01:57:14;92732.53;;;19.61;61.20
65376;BME280;51976;47.332;9.404;2023-06-22T02:00:03;92731.59;;;19.57;61.59
65376;BME280;51976;47.332;9.404;2023-06-22T02:02:39;92739.44;;;19.01;62.82
65376;BME280;51976;47.332;9.404;2023-06-22T02:05:09;92747.56;;;18.89;63.16
65376;BME280;51976;47.332;9.404;2023-06-22T02:07:45;92741.31;;;19.21;62.64
65376;BME280;51976;47.332;9.404;2023-06-22T02:10:15;92745.97;;;19.21;62.91
65376;BME280;51976;47.332;9.404;2023-06-22T02:12:42;92752.22;;;19.09;64.10
65376;BME280;51976;47.332;9.404;2023-06-22T02:15:09;92747.09;;;19.20;64.17
65376;BME280;51976;47.332;9.404;2023-06-22T02:17:35;92736.28;;;19.11;63.95
65376;BME280;51976;47.332;9.404;2023-06-22T02:20:02;92754.63;;;19.23;64.62
65376;BME280;51976;47.332;9.404;2023-06-22T02:22:33;92749.44;;;18.97;64.81
65376;BME280;51976;47.332;9.404;2023-06-22T02:24:59;92748.81;;;18.79;66.12
65376;BME280;51976;47.332;9.404;2023-06-22T02:27:24;92752.69;;;18.90;65.72
65376;BME280;51976;47.332;9.404;2023-06-22T02:29:50;92758.16;;;19.11;64.79
65376;BME280;51976;47.332;9.404;2023-06-22T02:32:15;92751.50;;;19.00;65.30
65376;BME280;51976;47.332;9.404;2023-06-22T02:34:43;92753.16;;;18.92;66.03
65376;BME280;51976;47.332;9.404;2023-06-22T02:37:12;92774.44;;;19.20;64.78
65376;BME280;51976;47.332;9.404;2023-06-22T02:39:39;92758.59;;;19.13;65.03
65376;BME280;51976;47.332;9.404;2023-06-22T02:42:05;92752.09;;;19.06;65.09
65376;BME280;51976;47.332;9.404;2023-06-22T02:44:31;92767.59;;;19.14;64.82
65376;BME280;51976;47.332;9.404;2023-06-22T02:49:40;92763.28;;;18.92;65.18
65376;BME280;51976;47.332;9.404;2023-06-22T02:52:06;92761.91;;;19.19;64.39
65376;BME280;51976;47.332;9.404;2023-06-22T02:54:31;92752.22;;;19.09;64.28
65376;BME280;51976;47.332;9.404;2023-06-22T02:56:56;92757.81;;;19.13;64.57
65376;BME280;51976;47.332;9.404;2023-06-22T02:59:22;92766.56;;;18.65;66.10
65376;BME280;51976;47.332;9.404;2023-06-22T03:01:49;92770.50;;;18.76;65.49
65376;BME280;51976;47.332;9.404;2023-06-22T03:04:15;92769.53;;;18.92;64.96
65376;BME280;51976;47.332;9.404;2023-06-22T03:06:41;92758.94;;;18.79;65.20
65376;BME280;51976;47.332;9.404;2023-06-22T03:09:06;92765.50;;;18.78;65.63
65376;BME280;51976;47.332;9.404;2023-06-22T03:11:33;92762.81;;;18.90;65.34
65376;BME280;51976;47.332;9.404;2023-06-22T03:13:58;92760.09;;;18.90;65.22
65376;BME280;51976;47.332;9.404;2023-06-22T03:16:24;92746.44;;;18.90;65.06
65376;BME280;51976;47.332;9.404;2023-06-22T03:18:49;92748.56;;;19.05;64.56
65376;BME280;51976;47.332;9.404;2023-06-22T03:21:15;92743.34;;;19.12;64.14
65376;BME280;51976;47.332;9.404;2023-06-22T03:23:42;92741.50;;;19.16;64.35
65376;BME280;51976;47.332;9.404;2023-06-22T03:26:11;92751.91;;;18.90;65.09
65376;BME280;51976;47.332;9.404;2023-06-22T03:28:37;92741.31;;;18.88;65.21
65376;BME280;51976;47.332;9.404;2023-06-22T03:31:03;92740.47;;;18.76;65.59
65376;BME280;51976;47.332;9.404;2023-06-22T03:33:29;92736.09;;;18.96;64.79
65376;BME280;51976;47.332;9.404;2023-06-22T03:35:55;92723.41;;;19.12;64.28
65376;BME280;51976;47.332;9.404;2023-06-22T03:38:20;92720.34;;;19.13;64.10
65376;BME280;51976;47.332;9.404;2023-06-22T03:40:45;92731.28;;;19.13;63.69
65376;BME280;51976;47.332;9.404;2023-06-22T03:43:11;92724.22;;;19.12;63.92
65376;BME280;51976;47.332;9.404;2023-06-22T03:45:36;92724.22;;;19.12;63.66
65376;BME280;51976;47.332;9.404;2023-06-22T03:48:02;92715.50;;;18.98;63.84
65376;BME280;51976;47.332;9.404;2023-06-22T03:50:28;92722.81;;;19.06;63.80
65376;BME280;51976;47.332;9.404;2023-06-22T03:52:53;92727.31;;;18.90;64.38
65376;BME280;51976;47.332;9.404;2023-06-22T03:55:21;92726.28;;;18.82;64.69
65376;BME280;51976;47.332;9.404;2023-06-22T03:57:47;92735.00;;;18.76;65.00
65376;BME280;51976;47.332;9.404;2023-06-22T04:00:13;92723.31;;;18.87;64.78
65376;BME280;51976;47.332;9.404;2023-06-22T04:02:38;92734.28;;;18.25;66.31
65376;BME280;51976;47.332;9.404;2023-06-22T04:05:04;92739.88;;;18.49;66.03
65376;BME280;51976;47.332;9.404;2023-06-22T04:07:30;92743.13;;;18.43;66.59
65376;BME280;51976;47.332;9.404;2023-06-22T04:09:55;92739.53;;;18.72;65.86
65376;BME280;51976;47.332;9.404;2023-06-22T04:12:20;92740.94;;;18.78;65.42
65376;BME280;51976;47.332;9.404;2023-06-22T04:14:46;92740.06;;;18.86;65.19
65376;BME280;51976;47.332;9.404;2023-06-22T04:17:11;92738.38;;;18.93;65.24
65376;BME280;51976;47.332;9.404;2023-06-22T04:19:39;92736.22;;;18.99;64.75
65376;BME280;51976;47.332;9.404;2023-06-22T04:22:04;92734.44;;;19.15;64.23
65376;BME280;51976;47.332;9.404;2023-06-22T04:24:32;92730.50;;;19.25;63.59
65376;BME280;51976;47.332;9.404;2023-06-22T04:26:58;92735.38;;;19.19;64.11
65376;BME280;51976;47.332;9.404;2023-06-22T04:29:28;92725.94;;;19.29;63.32
65376;BME280;51976;47.332;9.404;2023-06-22T04:31:56;92718.31;;;19.22;63.81
65376;BME280;51976;47.332;9.404;2023-06-22T04:34:24;92719.09;;;19.11;63.63
65376;BME280;51976;47.332;9.404;2023-06-22T04:36:51;92724.41;;;18.74;64.58
65376;BME280;51976;47.332;9.404;2023-06-22T04:39:17;92705.00;;;18.88;64.49
65376;BME280;51976;47.332;9.404;2023-06-22T04:41:44;92706.38;;;18.94;64.62
65376;BME280;51976;47.332;9.404;2023-06-22T04:44:11;92693.69;;;19.10;63.82
65376;BME280;51976;47.332;9.404;2023-06-22T04:46:37;92695.09;;;19.28;63.54
65376;BME280;51976;47.332;9.404;2023-06-22T04:49:06;92693.06;;;19.38;63.18
65376;BME280;51976;47.332;9.404;2023-06-22T04:51:36;92685.31;;;19.40;63.23
65376;BME280;51976;47.332;9.404;2023-06-22T04:54:03;92682.59;;;19.52;62.54
65376;BME280;51976;47.332;9.404;2023-06-22T04:56:31;92678.97;;;19.60;62.37
65376;BME280;51976;47.332;9.404;2023-06-22T04:58:57;92678.97;;;19.72;61.88
65376;BME280;51976;47.332;9.404;2023-06-22T05:01:23;92675.75;;;19.70;61.51
65376;BME280;51976;47.332;9.404;2023-06-22T05:03:48;92668.81;;;19.85;61.18
65376;BME280;51976;47.332;9.404;2023-06-22T05:06:14;92665.28;;;19.84;61.61
65376;BME280;51976;47.332;9.404;2023-06-22T05:08:40;92656.13;;;20.05;61.38
65376;BME280;51976;47.332;9.404;2023-06-22T05:11:05;92658.56;;;19.82;62.10
65376;BME280;51976;47.332;9.404;2023-06-22T05:13:32;92656.63;;;19.94;61.87
65376;BME280;51976;47.332;9.404;2023-06-22T05:15:57;92652.94;;;20.03;61.55
65376;BME280;51976;47.332;9.404;2023-06-22T05:18:30;92656.81;;;20.02;61.95
65376;BME280;51976;47.332;9.404;2023-06-22T05:20:56;92661.59;;;20.05;61.70
65376;BME280;51976;47.332;9.404;2023-06-22T05:23:22;92656.41;;;20.40;60.97
65376;BME280;51976;47.332;9.404;2023-06-22T05:25:47;92661.22;;;20.71;60.27
65376;BME280;51976;47.332;9.404;2023-06-22T05:28:13;92653.41;;;21.16;58.90
65376;BME280;51976;47.332;9.404;2023-06-22T05:30:39;92659.13;;;21.39;58.63
65376;BME280;51976;47.332;9.404;2023-06-22T05:33:04;92650.44;;;21.37;58.43
65376;BME280;51976;47.332;9.404;2023-06-22T05:35:30;92650.44;;;21.21;59.55
65376;BME280;51976;47.332;9.404;2023-06-22T05:37:56;92668.13;;;21.40;59.47
65376;BME280;51976;47.332;9.404;2023-06-22T05:40:21;92654.66;;;21.19;59.72
65376;BME280;51976;47.332;9.404;2023-06-22T05:42:47;92670.53;;;21.25;59.87
65376;BME280;51976;47.332;9.404;2023-06-22T05:45:12;92665.41;;;21.71;58.68
65376;BME280;51976;47.332;9.404;2023-06-22T05:47:38;92663.72;;;21.82;58.17
65376;BME280;51976;47.332;9.404;2023-06-22T05:50:04;92663.59;;;21.94;58.16
65376;BME280;51976;47.332;9.404;2023-06-22T05:52:32;92656.16;;;22.11;57.28
65376;BME280;51976;47.332;9.404;2023-06-22T05:54:57;92658.66;;;22.35;56.47
65376;BME280;51976;47.332;9.404;2023-06-22T05:57:23;92674.56;;;22.45;56.21
65376;BME280;51976;47.332;9.404;2023-06-22T05:59:48;92678.94;;;22.85;55.68
65376;BME280;51976;47.332;9.404;2023-06-22T06:02:14;92667.78;;;22.58;56.63
65376;BME280;51976;47.332;9.404;2023-06-22T06:04:39;92664.72;;;22.44;57.24
65376;BME280;51976;47.332;9.404;2023-06-22T06:07:05;92657.31;;;22.83;56.55
65376;BME280;51976;47.332;9.404;2023-06-22T06:09:30;92666.69;;;23.02;56.30
65376;BME280;51976;47.332;9.404;2023-06-22T06:11:56;92662.06;;;23.06;56.28
65376;BME280;51976;47.332;9.404;2023-06-22T06:14:22;92655.72;;;22.82;57.29
65376;BME280;51976;47.332;9.404;2023-06-22T06:16:50;92662.38;;;22.81;57.26
65376;BME280;51976;47.332;9.404;2023-06-22T06:19:15;92668.22;;;22.99;56.96
65376;BME280;51976;47.332;9.404;2023-06-22T06:21:41;92654.25;;;23.08;56.89
65376;BME280;51976;47.332;9.404;2023-06-22T06:24:06;92660.50;;;22.85;57.03
65376;BME280;51976;47.332;9.404;2023-06-22T06:26:32;92660.41;;;23.01;56.75
65376;BME280;51976;47.332;9.404;2023-06-22T06:29:00;92648.44;;;23.55;55.40
65376;BME280;51976;47.332;9.404;2023-06-22T06:31:26;92659.31;;;23.71;55.29
65376;BME280;51976;47.332;9.404;2023-06-22T06:33:54;92661.19;;;23.44;56.36
65376;BME280;51976;47.332;9.404;2023-06-22T06:36:20;92649.06;;;23.94;55.38
65376;BME280;51976;47.332;9.404;2023-06-22T06:38:46;92647.66;;;24.04;55.36
65376;BME280;51976;47.332;9.404;2023-06-22T06:41:13;92655.50;;;24.02;55.76
65376;BME280;51976;47.332;9.404;2023-06-22T06:43:39;92654.84;;;24.12;55.69
65376;BME280;51976;47.332;9.404;2023-06-22T06:46:04;92633.16;;;23.57;57.08
65376;BME280;51976;47.332;9.404;2023-06-22T06:48:30;92639.78;;;24.02;56.35
65376;BME280;51976;47.332;9.404;2023-06-22T06:50:55;92655.88;;;24.26;55.34
65376;BME280;51976;47.332;9.404;2023-06-22T06:53:21;92664.50;;;24.51;55.11
65376;BME280;51976;47.332;9.404;2023-06-22T06:55:47;92641.94;;;24.16;55.27
65376;BME280;51976;47.332;9.404;2023-06-22T06:58:12;92660.16;;;24.24;55.78
65376;BME280;51976;47.332;9.404;2023-06-22T07:00:39;92652.44;;;24.33;55.70
65376;BME280;51976;47.332;9.404;2023-06-22T07:03:04;92660.50;;;23.96;56.96
65376;BME280;51976;47.332;9.404;2023-06-22T07:05:30;92659.50;;;23.58;58.26
65376;BME280;51976;47.332;9.404;2023-06-22T07:07:55;92673.66;;;23.38;59.01
65376;BME280;51976;47.332;9.404;2023-06-22T07:10:21;92658.38;;;23.17;60.15
65376;BME280;51976;47.332;9.404;2023-06-22T07:12:47;92674.47;;;23.38;59.98
65376;BME280;51976;47.332;9.404;2023-06-22T07:15:13;92680.41;;;23.63;59.35
65376;BME280;51976;47.332;9.404;2023-06-22T07:17:39;92677.66;;;23.86;58.94
65376;BME280;51976;47.332;9.404;2023-06-22T07:20:08;92657.94;;;23.38;60.56
65376;BME280;51976;47.332;9.404;2023-06-22T07:22:36;92667.56;;;23.48;60.16
65376;BME280;51976;47.332;9.404;2023-06-22T07:25:02;92667.28;;;23.76;60.38
65376;BME280;51976;47.332;9.404;2023-06-22T07:27:37;92676.91;;;23.89;60.31
65376;BME280;51976;47.332;9.404;2023-06-22T07:30:04;92671.97;;;23.98;59.85
65376;BME280;51976;47.332;9.404;2023-06-22T07:32:29;92668.38;;;23.71;60.78
65376;BME280;51976;47.332;9.404;2023-06-22T07:34:55;92675.16;;;24.26;59.66
65376;BME280;51976;47.332;9.404;2023-06-22T07:37:20;92668.75;;;24.75;58.22
65376;BME280;51976;47.332;9.404;2023-06-22T07:39:46;92665.25;;;24.78;57.55
65376;BME280;51976;47.332;9.404;2023-06-22T07:42:11;92676.03;;;24.31;59.34
65376;BME280;51976;47.332;9.404;2023-06-22T07:44:37;92671.25;;;24.27;59.57
65376;BME280;51976;47.332;9.404;2023-06-22T07:47:02;92679.47;;;24.01;60.65
65376;BME280;51976;47.332;9.404;2023-06-22T07:49:28;92678.28;;;24.25;60.06
65376;BME280;51976;47.332;9.404;2023-06-22T07:51:53;92672.38;;;24.00;60.51
65376;BME280;51976;47.332;9.404;2023-06-22T07:54:18;92672.66;;;24.18;60.17
65376;BME280;51976;47.332;9.404;2023-06-22T07:56:46;92678.06;;;24.37;59.84
65376;BME280;51976;47.332;9.404;2023-06-22T07:59:12;92676.06;;;24.34;59.82
65376;BME280;51976;47.332;9.404;2023-06-22T08:01:37;92684.34;;;24.11;60.78
65376;BME280;51976;47.332;9.404;2023-06-22T08:04:03;92690.25;;;24.36;59.86
65376;BME280;51976;47.332;9.404;2023-06-22T08:06:30;92686.09;;;23.96;60.58
65376;BME280;51976;47.332;9.404;2023-06-22T08:08:56;92693.13;;;23.94;60.97
65376;BME280;51976;47.332;9.404;2023-06-22T08:11:22;92704.56;;;23.96;61.13
65376;BME280;51976;47.332;9.404;2023-06-22T08:13:49;92698.56;;;23.90;61.35
65376;BME280;51976;47.332;9.404;2023-06-22T08:16:14;92707.22;;;23.66;62.21
65376;BME280;51976;47.332;9.404;2023-06-22T08:18:40;92717.19;;;23.74;62.10
65376;BME280;51976;47.332;9.404;2023-06-22T08:21:05;92724.75;;;23.81;62.18
65376;BME280;51976;47.332;9.404;2023-06-22T08:23:31;92718.44;;;23.57;62.69
65376;BME280;51976;47.332;9.404;2023-06-22T08:25:56;92735.84;;;23.42;63.38
65376;BME280;51976;47.332;9.404;2023-06-22T08:28:21;92755.81;;;23.39;63.52
65376;BME280;51976;47.332;9.404;2023-06-22T08:30:47;92777.91;;;23.04;64.78
65376;BME280;51976;47.332;9.404;2023-06-22T08:33:12;92788.72;;;22.78;65.26
65376;BME280;51976;47.332;9.404;2023-06-22T08:35:41;92803.06;;;22.87;66.05
65376;BME280;51976;47.332;9.404;2023-06-22T08:38:06;92819.38;;;22.95;66.11
65376;BME280;51976;47.332;9.404;2023-06-22T08:40:33;92811.31;;;22.87;66.49
65376;BME280;51976;47.332;9.404;2023-06-22T08:42:58;92817.97;;;22.86;67.17
65376;BME280;51976;47.332;9.404;2023-06-22T08:45:23;92806.25;;;22.73;67.68
65376;BME280;51976;47.332;9.404;2023-06-22T08:47:49;92821.69;;;22.93;67.24
65376;BME280;51976;47.332;9.404;2023-06-22T08:50:17;92831.78;;;22.74;67.89
65376;BME280;51976;47.332;9.404;2023-06-22T08:52:42;92830.28;;;22.76;67.89
65376;BME280;51976;47.332;9.404;2023-06-22T08:55:09;92825.34;;;22.82;67.36
65376;BME280;51976;47.332;9.404;2023-06-22T08:57:35;92829.94;;;23.13;65.94
65376;BME280;51976;47.332;9.404;2023-06-22T09:00:07;92834.22;;;23.29;64.95
65376;BME280;51976;47.332;9.404;2023-06-22T09:02:43;92830.47;;;23.38;65.15
65376;BME280;51976;47.332;9.404;2023-06-22T09:05:09;92831.41;;;23.65;63.47
65376;BME280;51976;47.332;9.404;2023-06-22T09:07:35;92829.69;;;23.76;63.55
65376;BME280;51976;47.332;9.404;2023-06-22T09:10:01;92825.00;;;23.80;63.99
65376;BME280;51976;47.332;9.404;2023-06-22T09:12:30;92820.44;;;23.87;62.62
65376;BME280;51976;47.332;9.404;2023-06-22T09:14:56;92817.53;;;24.00;62.29
65376;BME280;51976;47.332;9.404;2023-06-22T09:17:22;92822.22;;;24.22;60.41
65376;BME280;51976;47.332;9.404;2023-06-22T09:19:48;92832.69;;;24.13;61.91
65376;BME280;51976;47.332;9.404;2023-06-22T09:22:14;92831.97;;;24.16;61.84
65376;BME280;51976;47.332;9.404;2023-06-22T09:24:39;92836.81;;;24.45;60.59
65376;BME280;51976;47.332;9.404;2023-06-22T09:27:07;92829.97;;;24.58;59.83
65376;BME280;51976;47.332;9.404;2023-06-22T09:29:34;92824.88;;;24.60;59.70
65376;BME280;51976;47.332;9.404;2023-06-22T09:32:00;92815.63;;;24.49;59.36
65376;BME280;51976;47.332;9.404;2023-06-22T09:34:25;92811.19;;;24.68;58.63
65376;BME280;51976;47.332;9.404;2023-06-22T09:36:51;92807.69;;;24.71;58.15
65376;BME280;51976;47.332;9.404;2023-06-22T09:39:18;92794.06;;;24.81;57.54
65376;BME280;51976;47.332;9.404;2023-06-22T09:41:43;92793.00;;;25.16;56.93
65376;BME280;51976;47.332;9.404;2023-06-22T09:44:09;92789.72;;;25.37;55.94
65376;BME280;51976;47.332;9.404;2023-06-22T09:46:35;92782.19;;;25.34;54.88
65376;BME280;51976;47.332;9.404;2023-06-22T09:49:00;92775.16;;;25.40;54.48
65376;BME280;51976;47.332;9.404;2023-06-22T09:51:26;92778.88;;;25.54;53.87
65376;BME280;51976;47.332;9.404;2023-06-22T09:53:52;92780.44;;;25.85;52.92
65376;BME280;51976;47.332;9.404;2023-06-22T09:56:19;92773.19;;;25.70;52.85
65376;BME280;51976;47.332;9.404;2023-06-22T09:58:46;92776.25;;;25.99;52.27
65376;BME280;51976;47.332;9.404;2023-06-22T10:01:12;92772.25;;;25.96;51.73
65376;BME280;51976;47.332;9.404;2023-06-22T10:03:38;92768.81;;;26.10;51.31
65376;BME280;51976;47.332;9.404;2023-06-22T10:06:03;92765.28;;;26.09;51.23
65376;BME280;51976;47.332;9.404;2023-06-22T10:08:29;92767.38;;;26.23;51.34
65376;BME280;51976;47.332;9.404;2023-06-22T10:10:54;92762.81;;;26.41;51.33
65376;BME280;51976;47.332;9.404;2023-06-22T10:13:20;92751.59;;;26.75;51.02
65376;BME280;51976;47.332;9.404;2023-06-22T10:15:45;92763.94;;;26.91;51.04
65376;BME280;51976;47.332;9.404;2023-06-22T10:18:16;92759.53;;;26.80;51.56
65376;BME280;51976;47.332;9.404;2023-06-22T10:20:42;92767.44;;;26.85;51.59
65376;BME280;51976;47.332;9.404;2023-06-22T10:23:08;92763.41;;;26.68;51.69
65376;BME280;51976;47.332;9.404;2023-06-22T10:25:33;92756.38;;;26.85;51.25
65376;BME280;51976;47.332;9.404;2023-06-22T10:27:59;92765.59;;;26.96;51.05
65376;BME280;51976;47.332;9.404;2023-06-22T10:30:24;92755.06;;;27.23;49.47
65376;BME280;51976;47.332;9.404;2023-06-22T10:32:50;92748.38;;;27.38;48.39
65376;BME280;51976;47.332;9.404;2023-06-22T10:35:15;92739.66;;;27.36;48.77
65376;BME280;51976;47.332;9.404;2023-06-22T10:37:44;92733.34;;;27.39;48.28
65376;BME280;51976;47.332;9.404;2023-06-22T10:40:14;92735.88;;;27.62;47.78
65376;BME280;51976;47.332;9.404;2023-06-22T10:42:40;92728.34;;;27.70;47.66
65376;BME280;51976;47.332;9.404;2023-06-22T10:45:06;92727.16;;;27.71;46.18
65376;BME280;51976;47.332;9.404;2023-06-22T10:47:32;92721.59;;;27.67;43.90
65376;BME280;51976;47.332;9.404;2023-06-22T10:49:57;92718.91;;;27.85;43.27
65376;BME280;51976;47.332;9.404;2023-06-22T10:52:22;92711.38;;;28.00;42.42
65376;BME280;51976;47.332;9.404;2023-06-22T10:54:48;92709.44;;;28.32;41.03
65376;BME280;51976;47.332;9.404;2023-06-22T10:57:13;92710.19;;;28.04;41.27
65376;BME280;51976;47.332;9.404;2023-06-22T10:59:39;92712.16;;;27.96;40.41
65376;BME280;51976;47.332;9.404;2023-06-22T11:02:07;92709.81;;;28.13;40.03
65376;BME280;51976;47.332;9.404;2023-06-22T11:04:32;92710.63;;;28.27;39.75
65376;BME280;51976;47.332;9.404;2023-06-22T11:06:57;92716.19;;;28.38;40.85
65376;BME280;51976;47.332;9.404;2023-06-22T11:09:23;92710.22;;;28.54;41.36
65376;BME280;51976;47.332;9.404;2023-06-22T11:11:50;92710.63;;;28.67;40.71
65376;BME280;51976;47.332;9.404;2023-06-22T11:14:16;92711.00;;;28.58;39.14
65376;BME280;51976;47.332;9.404;2023-06-22T11:16:41;92704.66;;;28.47;39.31
65376;BME280;51976;47.332;9.404;2023-06-22T11:19:07;92709.44;;;28.39;39.60
65376;BME280;51976;47.332;9.404;2023-06-22T11:21:32;92711.41;;;28.56;38.57
65376;BME280;51976;47.332;9.404;2023-06-22T11:24:01;92706.63;;;28.75;38.22
65376;BME280;51976;47.332;9.404;2023-06-22T11:26:26;92710.19;;;28.86;37.52
65376;BME280;51976;47.332;9.404;2023-06-22T11:28:53;92722.91;;;28.58;38.37
65376;BME280;51976;47.332;9.404;2023-06-22T11:31:18;92712.63;;;28.41;39.03
65376;BME280;51976;47.332;9.404;2023-06-22T11:33:43;92707.06;;;28.41;38.56
65376;BME280;51976;47.332;9.404;2023-06-22T11:36:11;92706.69;;;28.43;38.27
65376;BME280;51976;47.332;9.404;2023-06-22T11:38:37;92705.88;;;28.32;38.47
65376;BME280;51976;47.332;9.404;2023-06-22T11:41:06;92721.72;;;28.35;38.08
65376;BME280;51976;47.332;9.404;2023-06-22T11:43:32;92712.22;;;28.25;38.26
65376;BME280;51976;47.332;9.404;2023-06-22T11:45:57;92722.13;;;28.37;38.57
65376;BME280;51976;47.332;9.404;2023-06-22T11:48:24;92719.75;;;28.42;38.73
65376;BME280;51976;47.332;9.404;2023-06-22T11:50:50;92707.84;;;28.56;37.33
65376;BME280;51976;47.332;9.404;2023-06-22T11:53:15;92709.81;;;28.55;36.42
65376;BME280;51976;47.332;9.404;2023-06-22T11:55:43;92713.81;;;28.37;37.30
65376;BME280;51976;47.332;9.404;2023-06-22T11:58:08;92697.19;;;28.40;37.89
65376;BME280;51976;47.332;9.404;2023-06-22T12:00:34;92706.66;;;28.25;37.62
65376;BME280;51976;47.332;9.404;2023-06-22T12:03:00;92701.09;;;28.18;38.80
65376;BME280;51976;47.332;9.404;2023-06-22T12:05:25;92708.22;;;28.19;37.88
65376;BME280;51976;47.332;9.404;2023-06-22T12:07:53;92709.03;;;28.23;37.85
65376;BME280;51976;47.332;9.404;2023-06-22T12:10:20;92702.69;;;28.15;39.04
65376;BME280;51976;47.332;9.404;2023-06-22T12:12:45;92705.84;;;28.10;38.68
65376;BME280;51976;47.332;9.404;2023-06-22T12:15:11;92713.00;;;28.11;39.33
65376;BME280;51976;47.332;9.404;2023-06-22T12:17:37;92702.69;;;28.08;39.47
65376;BME280;51976;47.332;9.404;2023-06-22T12:20:03;92709.44;;;28.21;39.96
65376;BME280;51976;47.332;9.404;2023-06-22T12:22:32;92704.28;;;28.30;40.16
65376;BME280;51976;47.332;9.404;2023-06-22T12:24:57;92706.28;;;28.23;39.31
65376;BME280;51976;47.332;9.404;2023-06-22T12:27:22;92701.91;;;28.22;39.10
65376;BME280;51976;47.332;9.404;2023-06-22T12:29:48;92707.06;;;28.27;39.72
65376;BME280;51976;47.332;9.404;2023-06-22T12:32:14;92697.56;;;28.28;39.95
65376;BME280;51976;47.332;9.404;2023-06-22T12:34:42;92700.34;;;28.21;40.49
65376;BME280;51976;47.332;9.404;2023-06-22T12:37:08;92693.59;;;28.15;41.27
65376;BME280;51976;47.332;9.404;2023-06-22T12:39:33;92691.59;;;28.19;40.96
65376;BME280;51976;47.332;9.404;2023-06-22T12:41:59;92696.75;;;28.17;40.65
65376;BME280;51976;47.332;9.404;2023-06-22T12:44:25;92700.34;;;28.21;41.01
65376;BME280;51976;47.332;9.404;2023-06-22T12:46:51;92704.69;;;28.22;41.56
65376;BME280;51976;47.332;9.404;2023-06-22T12:49:16;92698.72;;;28.20;40.75
65376;BME280;51976;47.332;9.404;2023-06-22T12:51:43;92710.63;;;28.35;40.10
65376;BME280;51976;47.332;9.404;2023-06-22T12:54:09;92715.41;;;28.45;40.20
65376;BME280;51976;47.332;9.404;2023-06-22T12:56:35;92699.16;;;28.36;40.40
65376;BME280;51976;47.332;9.404;2023-06-22T12:59:01;92708.25;;;28.47;40.16